sensor_id;sensor_type;location;lat;lon;timestamp;P1;durP1;ratioP1;P2;durP2;ratioP2
7941;SDS011;4016;50.758;7.150;2024-01-15T09:12:33;11.23;;;7.53;;
7941;SDS011;4016;50.758;7.150;2024-01-15T09:17:34;13.00;;;7.13;;
7941;SDS011;4016;50.758;7.150;2024-01-15T09:22:34;12.30;;;7.67;;
7941;SDS011;4016;50.758;7.150;2024-01-15T09:27:35;13.53;;;7.50;;
7941;SDS011;4016;50.758;7.150;2024-01-15T09:32:35;11.13;;;7.13;;
7941;SDS011;4016;50.758;7.150;2024-01-15T09:37:36;8.47;;;6.50;;
7941;SDS011;4016;50.758;7.150;2024-01-15T09:42:37;9.97;;;7.20;;
7941;SDS011;4016;50.758;7.150;2024-01-15T09:47:38;8.17;;;5.70;;
7941;SDS011;4016;50.758;7.150;2024-01-15T09:52:38;7.97;;;6.03;;
7941;SDS011;4016;50.758;7.150;2024-01-15T09:57:40;7.57;;;6.20;;
7941;SDS011;4016;50.758;7.150;2024-01-15T10:02:40;11.33;;;5.90;;
7941;SDS011;4016;50.758;7.150;2024-01-15T10:07:41;7.40;;;5.00;;
7941;SDS011;4016;50.758;7.150;2024-01-15T10:12:42;7.37;;;5.60;;
7941;SDS011;4016;50.758;7.150;2024-01-15T10:17:42;8.10;;;5.90;;
7941;SDS011;4016;50.758;7.150;2024-01-15T10:22:43;6.87;;;5.70;;
7941;SDS011;4016;50.758;7.150;2024-01-15T10:27:51;6.03;;;5.43;;
7941;SDS011;4016;50.758;7.150;2024-01-15T10:33:00;9.47;;;5.87;;
7941;SDS011;4016;50.758;7.150;2024-01-15T10:38:02;7.20;;;6.10;;
7941;SDS011;4016;50.758;7.150;2024-01-15T10:43:03;9.00;;;5.93;;
7941;SDS011;4016;50.758;7.150;2024-01-15T10:48:04;12.03;;;6.80;;
7941;SDS011;4016;50.758;7.150;2024-01-15T10:53:05;8.07;;;5.97;;
7941;SDS011;4016;50.758;7.150;2024-01-15T10:58:05;8.57;;;5.90;;
7941;SDS011;4016;50.758;7.150;2024-01-15T11:03:07;7.50;;;5.93;;
7941;SDS011;4016;50.758;7.150;2024-01-15T11:08:08;5.93;;;4.93;;
7941;SDS011;4016;50.758;7.150;2024-01-15T11:13:09;6.27;;;5.33;;
7941;SDS011;4016;50.758;7.150;2024-01-15T11:18:20;6.07;;;4.93;;
7941;SDS011;4016;50.758;7.150;2024-01-15T11:28:49;6.10;;;5.17;;
7941;SDS011;4016;50.758;7.150;2024-01-15T11:33:49;6.40;;;5.70;;
7941;SDS011;4016;50.758;7.150;2024-01-15T11:38:50;6.13;;;5.30;;
7941;SDS011;4016;50.758;7.150;2024-01-15T11:43:50;6.23;;;5.63;;
7941;SDS011;4016;50.758;7.150;2024-01-15T11:48:52;8.83;;;5.90;;
7941;SDS011;4016;50.758;7.150;2024-01-15T11:54:03;8.67;;;5.93;;
7941;SDS011;4016;50.758;7.150;2024-01-15T11:59:09;7.77;;;6.27;;
7941;SDS011;4016;50.758;7.150;2024-01-15T12:04:09;7.30;;;6.57;;
7941;SDS011;4016;50.758;7.150;2024-01-15T12:09:09;11.90;;;6.67;;
7941;SDS011;4016;50.758;7.150;2024-01-15T12:14:10;8.73;;;7.00;;
7941;SDS011;4016;50.758;7.150;2024-01-15T12:19:10;9.13;;;7.17;;
7941;SDS011;4016;50.758;7.150;2024-01-15T12:24:11;8.33;;;6.63;;
7941;SDS011;4016;50.758;7.150;2024-01-15T12:29:11;11.03;;;7.60;;
7941;SDS011;4016;50.758;7.150;2024-01-15T12:34:11;11.53;;;7.13;;
7941;SDS011;4016;50.758;7.150;2024-01-15T12:39:12;12.03;;;6.63;;
7941;SDS011;4016;50.758;7.150;2024-01-15T12:44:13;8.23;;;6.40;;
7941;SDS011;4016;50.758;7.150;2024-01-15T12:49:13;11.10;;;6.33;;
7941;SDS011;4016;50.758;7.150;2024-01-15T12:54:14;10.57;;;6.17;;
7941;SDS011;4016;50.758;7.150;2024-01-15T12:59:14;7.43;;;5.47;;
7941;SDS011;4016;50.758;7.150;2024-01-15T13:04:21;8.30;;;5.83;;
7941;SDS011;4016;50.758;7.150;2024-01-15T13:09:22;7.83;;;5.70;;
7941;SDS011;4016;50.758;7.150;2024-01-15T13:14:23;6.93;;;4.60;;
7941;SDS011;4016;50.758;7.150;2024-01-15T13:19:23;9.97;;;5.30;;
7941;SDS011;4016;50.758;7.150;2024-01-15T13:24:24;6.27;;;4.77;;
7941;SDS011;4016;50.758;7.150;2024-01-15T13:29:24;9.20;;;5.43;;
7941;SDS011;4016;50.758;7.150;2024-01-15T13:34:24;7.37;;;5.37;;
7941;SDS011;4016;50.758;7.150;2024-01-15T13:39:25;7.43;;;4.60;;
7941;SDS011;4016;50.758;7.150;2024-01-15T13:44:25;7.10;;;4.60;;
7941;SDS011;4016;50.758;7.150;2024-01-15T13:49:25;7.30;;;4.37;;
7941;SDS011;4016;50.758;7.150;2024-01-15T13:54:26;5.90;;;4.10;;
7941;SDS011;4016;50.758;7.150;2024-01-15T13:59:26;7.50;;;4.57;;
7941;SDS011;4016;50.758;7.150;2024-01-15T14:04:27;5.77;;;3.93;;
7941;SDS011;4016;50.758;7.150;2024-01-15T14:09:27;5.63;;;4.37;;
7941;SDS011;4016;50.758;7.150;2024-01-15T14:14:27;5.90;;;4.23;;
7941;SDS011;4016;50.758;7.150;2024-01-15T14:19:28;5.03;;;4.20;;
7941;SDS011;4016;50.758;7.150;2024-01-15T14:24:28;7.77;;;4.83;;
7941;SDS011;4016;50.758;7.150;2024-01-15T14:29:29;4.10;;;3.80;;
7941;SDS011;4016;50.758;7.150;2024-01-15T14:34:29;4.60;;;3.60;;
7941;SDS011;4016;50.758;7.150;2024-01-15T14:39:30;4.53;;;3.70;;
7941;SDS011;4016;50.758;7.150;2024-01-15T14:44:34;4.63;;;3.80;;
7941;SDS011;4016;50.758;7.150;2024-01-15T14:49:35;3.47;;;3.03;;
7941;SDS011;4016;50.758;7.150;2024-01-15T14:54:35;5.30;;;3.20;;
7941;SDS011;4016;50.758;7.150;2024-01-15T14:59:35;3.40;;;3.10;;
7941;SDS011;4016;50.758;7.150;2024-01-15T15:04:36;3.63;;;3.33;;
7941;SDS011;4016;50.758;7.150;2024-01-15T15:09:36;5.43;;;3.73;;
7941;SDS011;4016;50.758;7.150;2024-01-15T15:14:39;4.10;;;3.70;;
7941;SDS011;4016;50.758;7.150;2024-01-15T15:19:40;4.10;;;3.40;;
7941;SDS011;4016;50.758;7.150;2024-01-15T15:24:40;7.53;;;3.70;;
7941;SDS011;4016;50.758;7.150;2024-01-15T15:29:41;3.73;;;3.37;;
7941;SDS011;4016;50.758;7.150;2024-01-15T15:34:41;4.60;;;3.80;;
7941;SDS011;4016;50.758;7.150;2024-01-15T15:39:42;5.23;;;3.97;;
7941;SDS011;4016;50.758;7.150;2024-01-15T15:44:42;4.23;;;3.83;;
7941;SDS011;4016;50.758;7.150;2024-01-15T15:49:46;3.47;;;3.17;;
7941;SDS011;4016;50.758;7.150;2024-01-15T15:54:47;4.77;;;3.73;;
7941;SDS011;4016;50.758;7.150;2024-01-15T15:59:47;5.10;;;4.17;;
7941;SDS011;4016;50.758;7.150;2024-01-15T16:04:47;7.93;;;4.30;;
7941;SDS011;4016;50.758;7.150;2024-01-15T16:09:48;4.67;;;4.17;;
7941;SDS011;4016;50.758;7.150;2024-01-15T16:14:48;5.63;;;4.10;;
7941;SDS011;4016;50.758;7.150;2024-01-15T16:19:48;4.20;;;3.80;;
7941;SDS011;4016;50.758;7.150;2024-01-15T16:24:49;3.80;;;3.37;;
7941;SDS011;4016;50.758;7.150;2024-01-15T16:29:49;3.70;;;3.10;;
7941;SDS011;4016;50.758;7.150;2024-01-15T16:34:50;3.50;;;3.20;;
7941;SDS011;4016;50.758;7.150;2024-01-15T16:39:50;3.60;;;3.30;;
7941;SDS011;4016;50.758;7.150;2024-01-15T16:44:51;4.83;;;3.87;;
7941;SDS011;4016;50.758;7.150;2024-01-15T16:49:51;6.67;;;4.80;;
7941;SDS011;4016;50.758;7.150;2024-01-15T16:54:51;7.73;;;4.10;;
7941;SDS011;4016;50.758;7.150;2024-01-15T16:59:52;5.50;;;4.30;;
7941;SDS011;4016;50.758;7.150;2024-01-15T17:04:52;5.17;;;4.20;;
7941;SDS011;4016;50.758;7.150;2024-01-15T17:09:53;5.10;;;4.03;;
7941;SDS011;4016;50.758;7.150;2024-01-15T17:14:53;4.53;;;4.13;;
7941;SDS011;4016;50.758;7.150;2024-01-15T17:19:53;5.97;;;4.33;;
7941;SDS011;4016;50.758;7.150;2024-01-15T17:24:55;6.03;;;3.87;;
7941;SDS011;4016;50.758;7.150;2024-01-15T17:29:55;4.80;;;3.70;;
7941;SDS011;4016;50.758;7.150;2024-01-15T17:34:56;4.53;;;4.10;;
7941;SDS011;4016;50.758;7.150;2024-01-15T17:39:56;4.20;;;3.53;;
7941;SDS011;4016;50.758;7.150;2024-01-15T17:44:56;5.43;;;4.20;;
7941;SDS011;4016;50.758;7.150;2024-01-15T17:49:57;6.20;;;4.23;;
7941;SDS011;4016;50.758;7.150;2024-01-15T17:54:57;6.77;;;3.70;;
7941;SDS011;4016;50.758;7.150;2024-01-15T17:59:58;5.10;;;3.80;;
7941;SDS011;4016;50.758;7.150;2024-01-15T18:04:58;6.30;;;4.33;;
7941;SDS011;4016;50.758;7.150;2024-01-15T18:09:58;4.00;;;3.63;;
7941;SDS011;4016;50.758;7.150;2024-01-15T18:14:59;5.90;;;3.93;;
7941;SDS011;4016;50.758;7.150;2024-01-15T18:20:00;8.70;;;3.97;;
7941;SDS011;4016;50.758;7.150;2024-01-15T18:25:03;4.73;;;3.80;;
7941;SDS011;4016;50.758;7.150;2024-01-15T18:30:04;7.23;;;4.60;;
7941;SDS011;4016;50.758;7.150;2024-01-15T18:35:05;6.03;;;3.70;;
7941;SDS011;4016;50.758;7.150;2024-01-15T18:40:06;6.63;;;3.73;;
7941;SDS011;4016;50.758;7.150;2024-01-15T18:45:07;7.53;;;3.97;;
7941;SDS011;4016;50.758;7.150;2024-01-15T18:50:07;5.20;;;3.60;;
7941;SDS011;4016;50.758;7.150;2024-01-15T18:55:08;5.13;;;3.90;;
7941;SDS011;4016;50.758;7.150;2024-01-15T19:00:13;7.30;;;3.77;;
7941;SDS011;4016;50.758;7.150;2024-01-15T19:05:14;5.57;;;3.40;;
7941;SDS011;4016;50.758;7.150;2024-01-15T19:10:14;8.03;;;4.07;;
7941;SDS011;4016;50.758;7.150;2024-01-15T19:15:15;4.70;;;4.03;;
7941;SDS011;4016;50.758;7.150;2024-01-15T19:20:15;8.87;;;3.97;;
7941;SDS011;4016;50.758;7.150;2024-01-15T19:25:16;4.87;;;3.83;;
7941;SDS011;4016;50.758;7.150;2024-01-15T19:30:16;4.70;;;4.10;;
7941;SDS011;4016;50.758;7.150;2024-01-15T19:35:16;4.90;;;4.33;;
7941;SDS011;4016;50.758;7.150;2024-01-15T19:40:17;10.57;;;4.30;;
7941;SDS011;4016;50.758;7.150;2024-01-15T19:45:17;5.97;;;4.47;;
7941;SDS011;4016;50.758;7.150;2024-01-15T19:50:17;10.37;;;4.17;;
7941;SDS011;4016;50.758;7.150;2024-01-15T19:55:18;7.20;;;4.10;;
7941;SDS011;4016;50.758;7.150;2024-01-15T20:00:18;6.20;;;4.20;;
7941;SDS011;4016;50.758;7.150;2024-01-15T20:05:19;5.20;;;4.17;;
7941;SDS011;4016;50.758;7.150;2024-01-15T20:10:19;5.63;;;4.10;;
7941;SDS011;4016;50.758;7.150;2024-01-15T20:15:19;7.10;;;4.77;;
7941;SDS011;4016;50.758;7.150;2024-01-15T20:20:20;8.70;;;4.70;;
7941;SDS011;4016;50.758;7.150;2024-01-15T20:25:20;10.17;;;4.83;;
7941;SDS011;4016;50.758;7.150;2024-01-15T20:30:21;7.03;;;4.57;;
7941;SDS011;4016;50.758;7.150;2024-01-15T20:35:21;9.10;;;5.03;;
7941;SDS011;4016;50.758;7.150;2024-01-15T20:40:22;5.60;;;4.80;;
7941;SDS011;4016;50.758;7.150;2024-01-15T20:45:22;5.43;;;4.00;;
7941;SDS011;4016;50.758;7.150;2024-01-15T20:50:22;5.03;;;4.40;;
7941;SDS011;4016;50.758;7.150;2024-01-15T20:55:23;9.47;;;5.27;;
7941;SDS011;4016;50.758;7.150;2024-01-15T21:00:23;8.60;;;5.17;;
7941;SDS011;4016;50.758;7.150;2024-01-15T21:05:24;8.50;;;4.57;;
7941;SDS011;4016;50.758;7.150;2024-01-15T21:10:24;6.47;;;4.60;;
7941;SDS011;4016;50.758;7.150;2024-01-15T21:15:25;7.53;;;4.80;;
7941;SDS011;4016;50.758;7.150;2024-01-15T21:20:25;9.70;;;4.83;;
7941;SDS011;4016;50.758;7.150;2024-01-15T21:25:26;7.50;;;4.43;;
7941;SDS011;4016;50.758;7.150;2024-01-15T21:30:26;8.10;;;4.50;;
7941;SDS011;4016;50.758;7.150;2024-01-15T21:35:27;5.20;;;4.53;;
7941;SDS011;4016;50.758;7.150;2024-01-15T21:40:27;10.70;;;4.30;;
7941;SDS011;4016;50.758;7.150;2024-01-15T21:45:28;10.60;;;5.07;;
7941;SDS011;4016;50.758;7.150;2024-01-15T21:50:28;7.83;;;4.97;;
7941;SDS011;4016;50.758;7.150;2024-01-15T21:55:29;5.20;;;4.30;;
7941;SDS011;4016;50.758;7.150;2024-01-15T22:00:29;5.73;;;4.00;;
7941;SDS011;4016;50.758;7.150;2024-01-15T22:05:29;6.53;;;4.00;;
7941;SDS011;4016;50.758;7.150;2024-01-15T22:10:30;8.23;;;4.70;;
7941;SDS011;4016;50.758;7.150;2024-01-15T22:15:30;5.67;;;4.13;;
7941;SDS011;4016;50.758;7.150;2024-01-15T22:20:30;7.70;;;4.40;;
7941;SDS011;4016;50.758;7.150;2024-01-15T22:25:31;7.53;;;4.37;;
7941;SDS011;4016;50.758;7.150;2024-01-15T22:30:34;7.40;;;4.67;;
7941;SDS011;4016;50.758;7.150;2024-01-15T22:35:35;6.13;;;4.40;;
7941;SDS011;4016;50.758;7.150;2024-01-15T22:40:35;6.87;;;5.03;;
7941;SDS011;4016;50.758;7.150;2024-01-15T22:45:35;6.03;;;4.90;;
7941;SDS011;4016;50.758;7.150;2024-01-15T22:50:36;7.03;;;5.13;;
7941;SDS011;4016;50.758;7.150;2024-01-15T22:55:36;11.00;;;5.30;;
7941;SDS011;4016;50.758;7.150;2024-01-15T23:00:37;10.17;;;5.20;;
7941;SDS011;4016;50.758;7.150;2024-01-15T23:05:37;6.73;;;5.17;;
7941;SDS011;4016;50.758;7.150;2024-01-15T23:10:38;9.23;;;5.70;;
7941;SDS011;4016;50.758;7.150;2024-01-15T23:15:39;11.20;;;5.70;;
7941;SDS011;4016;50.758;7.150;2024-01-15T23:20:39;8.17;;;5.53;;
7941;SDS011;4016;50.758;7.150;2024-01-15T23:25:39;6.87;;;5.23;;
7941;SDS011;4016;50.758;7.150;2024-01-15T23:30:40;9.53;;;6.13;;
7941;SDS011;4016;50.758;7.150;2024-01-15T23:35:40;8.60;;;6.03;;
7941;SDS011;4016;50.758;7.150;2024-01-15T23:40:40;6.40;;;5.53;;
7941;SDS011;4016;50.758;7.150;2024-01-15T23:45:41;8.87;;;5.80;;
7941;SDS011;4016;50.758;7.150;2024-01-15T23:50:41;7.47;;;5.40;;
7941;SDS011;4016;50.758;7.150;2024-01-15T23:55:41;9.73;;;5.70;;
